Time;durP1;ratioP1;P1;durP2;ratioP2;P2;SDS_P1;SDS_P2;PMS_P1;PMS_P2;Temp;Humidity;BMP_temperature;BMP_pressure;BME280_temperature;BME280_humidity;BME280_pressure;Samples;Min_cycle;Max_cycle;Signal;HPM_P1;HPM_P2
2022/12/21 00:01:41;;;;;;;15.52;8.18;;;8.00;68.00;;;;;;5072900;28;20071;-76
2022/12/21 00:04:09;;;;;;;14.75;8.50;;;8.10;67.90;;;;;;5073452;28;20032;-76
2022/12/21 00:06:36;;;;;;;15.02;8.55;;;8.00;67.80;;;;;;5072117;28;20040;-75
2022/12/21 00:09:12;;;;;;;16.40;8.52;;;8.10;67.90;;;;;;5073144;28;20058;-74
2022/12/21 00:11:38;;;;;;;15.95;8.52;;;8.00;67.70;;;;;;5071465;28;20049;-74
2022/12/21 00:14:05;;;;;;;15.52;8.48;;;8.00;67.70;;;;;;5070895;28;20028;-75
2022/12/21 00:16:35;;;;;;;17.45;8.23;;;8.10;67.80;;;;;;5073940;28;20522;-74
2022/12/21 00:19:01;;;;;;;14.80;8.20;;;8.10;67.80;;;;;;5072527;28;20063;-76
2022/12/21 00:21:31;;;;;;;12.70;7.60;;;8.10;67.80;;;;;;5079454;28;20052;-76
2022/12/21 00:23:58;;;;;;;15.45;8.48;;;8.10;67.80;;;;;;5072938;28;20032;-76
2022/12/21 00:26:26;;;;;;;15.80;8.65;;;8.10;67.70;;;;;;5088202;28;20503;-75
2022/12/21 00:28:53;;;;;;;13.82;8.60;;;8.10;67.70;;;;;;5072404;28;20052;-73
2022/12/21 00:31:28;;;;;;;14.35;8.13;;;8.10;67.70;;;;;;5071276;28;20040;-75
2022/12/21 00:33:55;;;;;;;13.82;8.90;;;8.10;67.70;;;;;;5087821;28;20037;-74
2022/12/21 00:36:23;;;;;;;15.65;8.93;;;8.10;67.70;;;;;;5071561;28;20086;-74
2022/12/21 00:38:49;;;;;;;16.13;8.98;;;8.10;67.60;;;;;;5095352;28;20043;-76
2022/12/21 00:41:21;;;;;;;16.55;9.13;;;8.10;67.60;;;;;;5070397;28;20085;-74
2022/12/21 00:43:49;;;;;;;14.38;9.23;;;8.10;67.60;;;;;;5070619;28;20032;-74
2022/12/21 00:46:20;;;;;;;16.75;9.20;;;8.10;67.50;;;;;;5071385;28;20036;-73
2022/12/21 00:48:47;;;;;;;16.08;8.75;;;8.10;67.50;;;;;;5071451;28;20055;-74
2022/12/21 00:51:15;;;;;;;17.40;9.63;;;8.10;67.50;;;;;;5087629;28;20047;-73
2022/12/21 00:53:41;;;;;;;19.80;9.85;;;8.10;67.50;;;;;;5070362;28;20372;-73
2022/12/21 00:56:10;;;;;;;17.60;10.10;;;8.10;67.60;;;;;;5077182;28;20035;-73
2022/12/21 00:58:37;;;;;;;16.17;9.77;;;8.10;67.70;;;;;;5070305;28;20426;-74
2022/12/21 01:01:10;;;;;;;15.18;9.68;;;8.10;67.70;;;;;;5071977;28;20045;-74
2022/12/21 01:03:36;;;;;;;14.65;9.30;;;8.10;67.90;;;;;;5087490;28;20024;-73
2022/12/21 01:06:03;;;;;;;14.10;9.32;;;8.10;68.00;;;;;;5055642;28;20411;-74
2022/12/21 01:08:29;;;;;;;16.90;9.77;;;8.10;67.80;;;;;;5073617;28;20088;-74
2022/12/21 01:11:00;;;;;;;17.70;9.82;;;8.10;67.70;;;;;;5085173;28;20040;-76
2022/12/21 01:13:27;;;;;;;15.38;9.60;;;8.10;67.70;;;;;;5086633;28;20173;-75
2022/12/21 01:15:53;;;;;;;16.27;9.57;;;8.10;67.60;;;;;;5070377;28;20103;-75
2022/12/21 01:18:20;;;;;;;16.70;9.07;;;8.10;67.60;;;;;;5070823;28;20135;-73
2022/12/21 01:20:49;;;;;;;15.13;8.98;;;8.10;67.40;;;;;;5087771;28;20032;-75
2022/12/21 01:23:17;;;;;;;15.50;8.75;;;8.10;67.50;;;;;;5071279;28;20036;-74
2022/12/21 01:25:44;;;;;;;16.75;9.60;;;8.10;67.40;;;;;;5078104;28;20465;-74
2022/12/21 01:28:10;;;;;;;18.50;9.60;;;8.10;67.50;;;;;;5070207;28;20041;-74
2022/12/21 01:30:38;;;;;;;14.88;9.25;;;8.10;67.40;;;;;;5069104;28;20037;-74
2022/12/21 01:33:05;;;;;;;15.48;9.02;;;8.10;67.40;;;;;;5072588;28;20033;-77
2022/12/21 01:35:31;;;;;;;15.00;9.05;;;8.10;67.30;;;;;;5071358;28;20032;-76
2022/12/21 01:37:59;;;;;;;17.40;10.25;;;8.10;67.30;;;;;;5071332;28;20032;-75
2022/12/21 01:40:29;;;;;;;17.52;9.68;;;8.10;67.20;;;;;;5069418;28;20025;-75
2022/12/21 01:42:55;;;;;;;17.27;9.60;;;8.10;67.30;;;;;;5077861;28;20484;-75
2022/12/21 01:45:28;;;;;;;16.88;9.68;;;8.10;67.30;;;;;;5072714;28;20040;-74
2022/12/21 01:47:57;;;;;;;15.27;9.93;;;8.10;67.40;;;;;;5082762;28;20051;-75
2022/12/21 01:50:41;;;;;;;16.15;10.02;;;8.10;67.40;;;;;;5081498;28;20085;-76
2022/12/21 01:53:27;;;;;;;17.67;9.85;;;8.10;67.40;;;;;;5070657;28;20040;-77
2022/12/21 01:55:55;;;;;;;16.00;9.65;;;8.10;67.50;;;;;;5069318;28;20032;-76
2022/12/21 01:58:25;;;;;;;14.80;9.82;;;8.10;67.40;;;;;;5053730;28;20035;-76
2022/12/21 02:00:52;;;;;;;18.15;10.77;;;8.10;67.50;;;;;;5069561;28;20127;-75
2022/12/21 02:03:21;;;;;;;19.42;11.20;;;8.10;67.30;;;;;;5048026;28;20635;-75
2022/12/21 02:05:56;;;;;;;19.95;10.77;;;8.10;67.30;;;;;;5068411;28;20071;-75
2022/12/21 02:08:22;;;;;;;22.48;11.13;;;8.10;67.30;;;;;;5069005;28;20041;-75
2022/12/21 02:10:49;;;;;;;17.23;10.60;;;8.10;67.30;;;;;;5069035;28;20048;-75
2022/12/21 02:13:16;;;;;;;16.00;10.15;;;8.10;67.30;;;;;;5087099;28;20413;-75
2022/12/21 02:16:00;;;;;;;15.57;10.15;;;8.10;67.20;;;;;;5069160;28;20495;-76
2022/12/21 02:18:34;;;;;;;14.27;9.57;;;8.10;67.30;;;;;;5062328;28;20482;-75
2022/12/21 02:21:22;;;;;;;15.43;10.02;;;8.10;67.50;;;;;;5071662;28;20032;-76
2022/12/21 02:24:12;;;;;;;16.73;9.70;;;8.10;67.60;;;;;;5071654;28;20143;-75
2022/12/21 02:26:47;;;;;;;16.95;9.45;;;8.10;67.70;;;;;;5084877;28;20089;-74
2022/12/21 02:29:57;;;;;;;19.77;9.90;;;8.10;67.70;;;;;;5090456;28;20105;-75
2022/12/21 02:32:25;;;;;;;17.58;9.48;;;8.10;67.80;;;;;;5079553;28;20135;-77
2022/12/21 02:35:29;;;;;;;16.13;9.55;;;8.10;67.70;;;;;;5069550;28;20032;-75
2022/12/21 02:38:04;;;;;;;17.90;10.38;;;8.10;67.70;;;;;;5084831;28;20029;-75
2022/12/21 02:40:51;;;;;;;16.25;9.63;;;8.10;67.70;;;;;;5069809;28;20093;-77
2022/12/21 02:46:19;;;;;;;17.08;9.98;;;8.10;67.70;;;;;;5070169;28;20093;-76
2022/12/21 02:48:54;;;;;;;16.15;9.38;;;8.10;67.70;;;;;;5068503;28;20082;-75
2022/12/21 02:51:29;;;;;;;17.40;9.82;;;8.10;67.70;;;;;;5069493;28;20048;-75
2022/12/21 02:53:56;;;;;;;18.45;9.35;;;8.10;67.60;;;;;;5035105;28;20028;-77
2022/12/21 02:56:21;;;;;;;16.65;9.98;;;8.10;67.50;;;;;;5070121;28;20496;-76
2022/12/21 02:58:47;;;;;;;15.07;9.20;;;8.10;67.60;;;;;;5053112;28;20138;-76
2022/12/21 03:01:46;;;;;;;16.30;9.45;;;8.10;67.50;;;;;;5086825;28;20045;-76
2022/12/21 03:04:34;;;;;;;16.88;9.60;;;8.10;67.50;;;;;;5073140;28;20032;-75
2022/12/21 03:07:37;;;;;;;16.45;9.43;;;8.10;67.40;;;;;;5072954;28;20033;-76
2022/12/21 03:10:28;;;;;;;14.82;9.10;;;8.10;67.50;;;;;;5073290;28;20086;-75
2022/12/21 03:13:06;;;;;;;15.38;9.40;;;8.10;68.20;;;;;;5066148;28;21518;-76
2022/12/21 03:15:56;;;;;;;14.88;8.82;;;8.10;67.70;;;;;;5089176;28;20040;-75
2022/12/21 03:18:58;;;;;;;13.82;8.80;;;8.10;67.70;;;;;;5090074;28;20033;-75
2022/12/21 03:21:53;;;;;;;17.38;9.65;;;8.10;67.70;;;;;;5049901;28;20070;-73
2022/12/21 03:24:26;;;;;;;16.48;8.88;;;8.20;67.60;;;;;;5085900;28;20052;-74
2022/12/21 03:27:30;;;;;;;13.93;8.85;;;8.10;67.60;;;;;;5074614;28;20102;-75
2022/12/21 03:30:02;;;;;;;16.35;9.73;;;8.10;67.70;;;;;;5029541;28;20554;-76
2022/12/21 03:32:34;;;;;;;13.85;9.32;;;8.20;67.70;;;;;;5017331;28;20045;-78
2022/12/21 03:35:02;;;;;;;14.80;9.13;;;8.10;67.70;;;;;;5035015;28;20107;-80
2022/12/21 03:37:33;;;;;;;17.35;9.82;;;8.20;67.70;;;;;;5012597;28;20100;-81
2022/12/21 03:40:10;;;;;;;15.38;8.98;;;8.20;67.70;;;;;;5028584;28;20122;-83
2022/12/21 03:42:41;;;;;;;14.75;9.35;;;8.20;67.60;;;;;;5011515;28;20025;-82
2022/12/21 03:45:11;;;;;;;14.55;9.55;;;8.20;67.40;;;;;;5012514;28;20048;-82
2022/12/21 03:47:46;;;;;;;17.20;9.73;;;8.10;67.20;;;;;;5005589;28;20150;-84
2022/12/21 03:50:19;;;;;;;15.45;9.30;;;8.20;67.20;;;;;;5029817;28;20072;-80
2022/12/21 03:53:17;;;;;;;15.60;9.50;;;8.20;67.10;;;;;;5013353;28;20052;-82
2022/12/21 03:55:46;;;;;;;17.58;9.95;;;8.10;67.00;;;;;;5036771;28;20037;-80
2022/12/21 03:58:13;;;;;;;14.25;9.18;;;8.10;67.00;;;;;;5029718;28;20116;-83
2022/12/21 04:00:58;;;;;;;13.90;9.00;;;8.10;66.90;;;;;;5025902;28;20390;-78
2022/12/21 04:03:31;;;;;;;15.85;8.93;;;8.10;66.80;;;;;;5042872;28;20067;-76
2022/12/21 04:06:12;;;;;;;15.95;9.32;;;8.20;66.70;;;;;;5072402;28;20040;-76
2022/12/21 04:08:39;;;;;;;15.43;9.60;;;8.20;66.60;;;;;;5072801;28;20407;-76
2022/12/21 04:11:05;;;;;;;14.70;9.63;;;8.10;66.50;;;;;;5073231;28;20028;-73
2022/12/21 04:13:34;;;;;;;16.55;9.95;;;8.20;66.50;;;;;;5071059;28;20055;-74
2022/12/21 04:16:03;;;;;;;15.88;9.85;;;8.20;66.40;;;;;;5071443;28;20645;-71
2022/12/21 04:21:13;;;;;;;15.07;9.85;;;8.20;66.50;;;;;;5071602;28;20036;-72
2022/12/21 04:29:09;;;;;;;16.30;10.25;;;8.20;66.90;;;;;;5070941;28;20415;-71
2022/12/21 04:31:35;;;;;;;14.70;9.35;;;8.20;67.20;;;;;;5068121;28;20123;-76
2022/12/21 04:34:01;;;;;;;16.23;9.43;;;8.20;67.40;;;;;;5086766;28;20084;-76
2022/12/21 04:39:11;;;;;;;16.67;9.10;;;8.20;67.80;;;;;;5073475;28;20021;-76
2022/12/21 04:41:37;;;;;;;14.98;9.48;;;8.20;67.80;;;;;;5075486;28;20039;-78
2022/12/21 04:44:03;;;;;;;17.52;9.68;;;8.20;68.00;;;;;;5071561;28;20438;-76
2022/12/21 04:46:29;;;;;;;15.02;9.43;;;8.20;68.20;;;;;;5077806;28;20066;-75
2022/12/21 04:48:55;;;;;;;14.75;9.23;;;8.20;68.40;;;;;;5088978;28;20036;-75
2022/12/21 04:51:23;;;;;;;17.15;9.15;;;8.20;68.60;;;;;;5071882;28;20048;-77
2022/12/21 04:53:51;;;;;;;16.92;10.48;;;8.20;68.80;;;;;;5086348;28;20042;-75
2022/12/21 04:56:17;;;;;;;17.17;10.18;;;8.20;69.00;;;;;;5064830;28;20063;-76
2022/12/21 04:58:44;;;;;;;18.83;10.52;;;8.20;69.00;;;;;;5070943;28;20035;-77
2022/12/21 05:01:11;;;;;;;15.55;10.13;;;8.20;69.20;;;;;;5071664;28;20419;-76
2022/12/21 05:03:37;;;;;;;19.27;10.52;;;8.20;69.20;;;;;;5071738;28;20887;-76
2022/12/21 05:06:03;;;;;;;16.95;10.60;;;8.20;69.30;;;;;;5071416;28;20429;-75
2022/12/21 05:08:30;;;;;;;16.92;10.35;;;8.20;69.40;;;;;;5070627;28;20511;-75
2022/12/21 05:11:06;;;;;;;18.65;10.20;;;8.20;69.40;;;;;;5071503;28;20450;-75
2022/12/21 05:13:33;;;;;;;18.08;10.75;;;8.20;69.40;;;;;;5087013;28;20044;-75
2022/12/21 05:16:08;;;;;;;18.92;10.50;;;8.30;69.20;;;;;;5070162;28;20040;-75
2022/12/21 05:18:34;;;;;;;19.23;10.50;;;8.20;69.10;;;;;;5070473;28;20032;-74
2022/12/21 05:21:00;;;;;;;16.58;10.40;;;8.20;68.90;;;;;;5072558;28;20489;-77
2022/12/21 05:23:26;;;;;;;18.60;10.60;;;8.20;68.80;;;;;;5072312;28;20040;-75
2022/12/21 05:25:52;;;;;;;18.25;10.55;;;8.20;68.70;;;;;;5068700;28;20048;-73
2022/12/21 05:28:18;;;;;;;20.40;11.80;;;8.20;68.60;;;;;;5071543;28;20079;-74
2022/12/21 05:30:44;;;;;;;18.45;10.80;;;8.20;68.60;;;;;;5069261;28;20032;-75
2022/12/21 05:33:10;;;;;;;18.60;10.85;;;8.20;68.30;;;;;;5071285;28;20261;-72
2022/12/21 05:35:40;;;;;;;18.75;10.18;;;8.20;68.10;;;;;;5069137;28;20123;-76
2022/12/21 05:38:06;;;;;;;17.35;11.00;;;8.30;68.00;;;;;;5070379;28;20058;-76
2022/12/21 05:40:35;;;;;;;17.75;9.95;;;8.20;67.80;;;;;;5070197;28;20064;-75
2022/12/21 05:43:02;;;;;;;17.45;10.27;;;8.20;67.70;;;;;;5063958;28;20036;-75
2022/12/21 05:45:28;;;;;;;16.70;10.75;;;8.30;67.50;;;;;;5070047;28;20040;-77
2022/12/21 05:47:54;;;;;;;19.42;10.25;;;8.20;67.30;;;;;;5068221;28;20143;-75
2022/12/21 05:50:21;;;;;;;18.65;10.90;;;8.20;67.20;;;;;;5070727;28;20032;-74
2022/12/21 05:52:51;;;;;;;20.80;10.95;;;8.20;67.10;;;;;;5076109;28;20126;-75
2022/12/21 05:55:17;;;;;;;16.67;10.95;;;8.20;67.00;;;;;;5068379;28;20542;-74
2022/12/21 05:57:43;;;;;;;21.00;10.57;;;8.20;66.90;;;;;;5078598;28;20044;-74
2022/12/21 06:00:10;;;;;;;20.75;11.00;;;8.20;66.90;;;;;;5088077;28;20021;-75
2022/12/21 06:02:38;;;;;;;18.17;10.20;;;8.20;67.50;;;;;;5088543;28;20051;-75
2022/12/21 06:05:04;;;;;;;19.30;10.20;;;8.20;66.90;;;;;;5087621;28;20036;-74
2022/12/21 06:07:30;;;;;;;18.27;11.00;;;8.20;66.90;;;;;;5076321;28;20047;-74
2022/12/21 06:09:56;;;;;;;19.83;11.20;;;8.20;66.90;;;;;;5071962;28;20486;-75
2022/12/21 06:12:23;;;;;;;18.50;11.38;;;8.20;66.70;;;;;;5070964;28;20139;-76
2022/12/21 06:14:49;;;;;;;16.10;10.07;;;8.20;66.60;;;;;;5070072;28;20128;-75
2022/12/21 06:17:15;;;;;;;21.75;11.05;;;8.20;66.60;;;;;;5086037;28;20032;-75
2022/12/21 06:19:42;;;;;;;18.13;11.23;;;8.20;66.70;;;;;;5069545;28;20059;-75
2022/12/21 06:22:08;;;;;;;18.70;11.70;;;8.20;66.60;;;;;;5070819;28;20597;-77
2022/12/21 06:24:33;;;;;;;18.58;11.77;;;8.20;66.60;;;;;;5069675;28;20105;-75
2022/12/21 06:26:59;;;;;;;18.35;11.30;;;8.20;66.40;;;;;;5069020;28;20550;-76
2022/12/21 06:29:25;;;;;;;19.15;11.60;;;8.20;66.40;;;;;;5071090;28;20029;-76
2022/12/21 06:31:51;;;;;;;23.58;12.60;;;8.20;66.20;;;;;;5069203;28;20649;-75
2022/12/21 06:34:17;;;;;;;22.52;12.48;;;8.20;66.30;;;;;;5068823;28;20086;-76
2022/12/21 06:36:43;;;;;;;24.48;12.15;;;8.20;66.20;;;;;;5068906;28;20123;-76
2022/12/21 06:39:09;;;;;;;22.70;11.88;;;8.20;66.10;;;;;;5070966;28;20458;-75
2022/12/21 06:41:35;;;;;;;19.23;12.82;;;8.20;66.00;;;;;;5069285;28;20693;-76
2022/12/21 06:44:01;;;;;;;19.70;11.90;;;8.20;66.00;;;;;;5069223;28;20067;-73
2022/12/21 06:46:27;;;;;;;20.35;11.98;;;8.20;65.90;;;;;;5069686;28;20106;-76
2022/12/21 06:48:53;;;;;;;20.90;12.35;;;8.20;65.80;;;;;;5069339;28;20064;-75
2022/12/21 06:51:21;;;;;;;17.48;11.73;;;8.20;65.90;;;;;;5075799;28;20585;-75
2022/12/21 06:53:49;;;;;;;17.45;11.52;;;8.20;66.00;;;;;;5085955;28;20044;-75
2022/12/21 06:56:18;;;;;;;19.23;12.70;;;8.20;65.80;;;;;;5069206;28;20033;-75
2022/12/21 06:58:44;;;;;;;21.55;12.52;;;8.20;65.60;;;;;;5069534;28;20089;-73
2022/12/21 07:01:13;;;;;;;21.05;12.23;;;8.20;65.50;;;;;;5069933;28;20156;-74
2022/12/21 07:03:40;;;;;;;18.67;11.45;;;8.20;65.40;;;;;;5068380;28;20446;-73
2022/12/21 07:06:08;;;;;;;16.27;10.43;;;8.30;73.00;;;;;;5070169;28;20032;-73
2022/12/21 07:08:34;;;;;;;22.90;12.70;;;8.40;69.40;;;;;;5051134;28;20527;-74
2022/12/21 07:11:08;;;;;;;25.80;12.55;;;8.40;68.80;;;;;;5068286;28;20139;-73
2022/12/21 07:13:35;;;;;;;24.10;13.68;;;8.40;67.80;;;;;;5069246;28;20395;-75
2022/12/21 07:16:01;;;;;;;24.33;14.13;;;8.40;66.90;;;;;;5068691;28;20043;-73
2022/12/21 07:18:27;;;;;;;23.02;13.48;;;8.50;66.40;;;;;;5071137;28;20024;-73
2022/12/21 07:20:58;;;;;;;23.75;12.25;;;8.40;65.80;;;;;;5069425;28;20094;-73
2022/12/21 07:23:28;;;;;;;21.73;13.27;;;8.40;65.60;;;;;;5069828;28;20109;-73
2022/12/21 07:25:54;;;;;;;23.85;12.43;;;8.40;65.40;;;;;;5061158;28;20515;-74
2022/12/21 07:28:21;;;;;;;23.08;12.55;;;8.40;65.30;;;;;;5067808;28;20127;-69
2022/12/21 07:30:48;;;;;;;21.20;11.82;;;8.40;66.60;;;;;;5068569;28;20033;-69
2022/12/21 07:33:23;;;;;;;24.45;13.60;;;8.50;68.60;;;;;;5069801;28;20678;-68
2022/12/21 07:35:48;;;;;;;18.88;11.15;;;8.50;68.40;;;;;;5069480;28;20510;-71
2022/12/21 07:38:15;;;;;;;21.98;11.70;;;8.60;68.60;;;;;;5068876;28;20142;-70
2022/12/21 07:40:41;;;;;;;20.20;11.48;;;8.70;68.40;;;;;;5070347;28;20525;-70
2022/12/21 07:43:11;;;;;;;17.27;10.90;;;8.80;68.20;;;;;;5068076;28;20718;-69
2022/12/21 07:45:48;;;;;;;16.08;11.18;;;8.80;68.00;;;;;;5066967;28;20032;-71
2022/12/21 07:48:15;;;;;;;19.45;10.93;;;8.90;67.90;;;;;;5069226;28;20500;-71
2022/12/21 07:50:42;;;;;;;19.75;11.75;;;9.00;67.40;;;;;;5073389;28;20040;-70
2022/12/21 07:53:08;;;;;;;17.80;11.20;;;9.10;66.40;;;;;;5073719;28;20032;-70
2022/12/21 07:55:34;;;;;;;20.67;12.52;;;9.10;65.90;;;;;;5071778;28;20032;-70
2022/12/21 07:58:00;;;;;;;18.27;11.25;;;9.20;65.40;;;;;;5073617;28;20380;-70
2022/12/21 08:00:26;;;;;;;18.38;11.55;;;9.20;65.10;;;;;;5072347;28;20024;-70
2022/12/21 08:02:52;;;;;;;18.13;11.50;;;9.20;64.70;;;;;;5073541;28;20028;-77
2022/12/21 08:05:18;;;;;;;20.13;11.10;;;9.30;65.40;;;;;;5073165;28;20136;-74
2022/12/21 08:07:45;;;;;;;19.73;11.70;;;9.40;65.40;;;;;;5072167;28;20195;-73
2022/12/21 08:10:11;;;;;;;19.95;11.60;;;9.40;65.20;;;;;;5072163;28;20036;-76
2022/12/21 08:12:38;;;;;;;21.55;11.60;;;9.50;64.70;;;;;;5072293;28;20032;-73
2022/12/21 08:15:04;;;;;;;21.27;11.93;;;9.50;64.00;;;;;;5066518;28;20065;-74
2022/12/21 08:17:30;;;;;;;24.77;11.98;;;9.50;63.50;;;;;;5089259;28;20056;-72
2022/12/21 08:19:56;;;;;;;19.58;12.60;;;9.40;63.10;;;;;;5072781;28;20058;-74
2022/12/21 08:22:23;;;;;;;22.38;12.43;;;9.50;62.70;;;;;;5069880;28;20029;-76
2022/12/21 08:24:49;;;;;;;20.58;12.88;;;9.40;62.30;;;;;;5070819;28;20035;-74
2022/12/21 08:27:15;;;;;;;21.95;13.30;;;9.40;62.00;;;;;;5070687;28;20036;-73
2022/12/21 08:29:41;;;;;;;20.17;11.93;;;9.40;61.70;;;;;;5073905;28;20437;-73
2022/12/21 08:32:08;;;;;;;22.45;13.20;;;9.40;62.10;;;;;;5073394;28;20041;-75
2022/12/21 08:34:34;;;;;;;22.25;12.45;;;9.40;61.40;;;;;;5071782;28;20040;-75
2022/12/21 08:37:00;;;;;;;20.13;13.10;;;9.40;61.30;;;;;;5070069;28;20063;-74
2022/12/21 08:39:27;;;;;;;24.52;13.55;;;9.30;61.00;;;;;;5076376;28;20031;-75
2022/12/21 08:41:53;;;;;;;22.75;13.43;;;9.30;60.90;;;;;;5091173;28;20015;-74
2022/12/21 08:44:19;;;;;;;23.08;12.75;;;9.30;60.90;;;;;;5092383;28;20104;-75
2022/12/21 08:46:45;;;;;;;20.92;13.13;;;9.30;60.80;;;;;;5094320;28;20047;-74
2022/12/21 08:49:11;;;;;;;20.88;12.88;;;9.20;60.80;;;;;;5084898;28;20318;-75
2022/12/21 08:51:38;;;;;;;22.10;12.70;;;9.20;60.90;;;;;;5089832;28;20507;-74
2022/12/21 08:54:07;;;;;;;25.92;12.57;;;9.20;61.00;;;;;;5087575;28;20036;-75
2022/12/21 08:56:34;;;;;;;21.95;12.23;;;9.20;61.00;;;;;;5071096;28;20052;-75
2022/12/21 08:59:02;;;;;;;22.05;12.75;;;9.20;61.10;;;;;;5070147;28;20082;-74
2022/12/21 09:01:29;;;;;;;24.58;12.77;;;9.10;61.00;;;;;;5069320;28;20646;-75
2022/12/21 09:03:55;;;;;;;23.38;13.13;;;9.10;60.90;;;;;;5071232;28;20063;-74
2022/12/21 09:06:21;;;;;;;20.60;12.63;;;9.10;60.90;;;;;;5072005;28;20075;-74
2022/12/21 09:08:47;;;;;;;22.02;12.40;;;9.10;60.90;;;;;;5071062;28;20051;-75
2022/12/21 09:11:15;;;;;;;21.27;13.15;;;9.10;60.90;;;;;;5069704;28;20603;-74
2022/12/21 09:13:42;;;;;;;21.77;13.02;;;9.00;60.80;;;;;;5070649;28;20029;-73
2022/12/21 09:16:14;;;;;;;16.40;11.60;;;9.00;60.70;;;;;;5076859;28;20111;-73
2022/12/21 09:18:40;;;;;;;19.40;12.38;;;9.00;60.50;;;;;;5071893;28;20052;-76
2022/12/21 09:21:07;;;;;;;18.70;11.57;;;9.00;60.50;;;;;;5069719;28;20074;-76
2022/12/21 09:23:33;;;;;;;21.55;10.77;;;8.90;60.50;;;;;;5072436;28;20039;-78
2022/12/21 09:25:59;;;;;;;19.92;12.45;;;8.90;60.50;;;;;;5070915;28;20048;-76
2022/12/21 09:28:25;;;;;;;17.55;11.18;;;8.90;60.30;;;;;;5072004;28;20573;-75
2022/12/21 09:30:51;;;;;;;17.88;10.98;;;8.90;60.40;;;;;;5071330;28;20171;-75
2022/12/21 09:33:17;;;;;;;16.98;10.63;;;8.90;60.30;;;;;;5069991;28;20060;-73
2022/12/21 09:35:43;;;;;;;16.67;10.07;;;8.90;60.40;;;;;;5068795;28;20073;-73
2022/12/21 09:38:09;;;;;;;16.15;9.80;;;8.80;60.50;;;;;;5070132;28;20594;-73
2022/12/21 09:40:35;;;;;;;15.43;10.27;;;8.80;60.70;;;;;;5068914;28;20032;-75
2022/12/21 09:43:07;;;;;;;16.02;10.27;;;8.80;60.70;;;;;;5069365;28;20042;-76
2022/12/21 09:45:48;;;;;;;14.35;9.57;;;8.80;60.80;;;;;;5070448;28;20150;-74
2022/12/21 09:48:20;;;;;;;15.65;9.65;;;8.80;60.80;;;;;;5069680;28;20035;-75
2022/12/21 09:50:53;;;;;;;15.70;9.30;;;8.80;61.10;;;;;;5063949;28;20706;-75
2022/12/21 09:53:25;;;;;;;14.85;8.85;;;8.80;61.20;;;;;;5087905;28;20048;-76
2022/12/21 09:55:53;;;;;;;14.73;8.73;;;8.70;61.30;;;;;;5084530;28;20121;-75
2022/12/21 09:58:50;;;;;;;14.90;8.48;;;8.70;61.30;;;;;;5085280;28;20124;-75
2022/12/21 10:01:28;;;;;;;14.75;8.35;;;8.70;61.30;;;;;;5068750;28;20087;-74
2022/12/21 10:04:09;;;;;;;15.55;8.48;;;8.70;61.40;;;;;;5069550;28;20162;-75
2022/12/21 10:07:14;;;;;;;14.40;7.90;;;8.70;61.50;;;;;;5068300;28;20032;-74
2022/12/21 10:09:58;;;;;;;11.00;7.13;;;8.60;61.70;;;;;;5023687;28;20578;-75
2022/12/21 10:12:54;;;;;;;10.43;6.72;;;8.60;61.90;;;;;;5022844;28;20420;-75
2022/12/21 10:15:29;;;;;;;12.50;6.75;;;8.60;62.00;;;;;;5023601;28;20420;-73
2022/12/21 10:18:33;;;;;;;11.07;6.43;;;8.60;62.10;;;;;;5023811;28;20022;-74
2022/12/21 10:21:36;;;;;;;8.98;6.38;;;8.60;62.30;;;;;;5018884;28;20149;-74
2022/12/21 10:24:07;;;;;;;9.25;6.63;;;8.60;62.60;;;;;;5023226;28;20049;-76
2022/12/21 10:26:35;;;;;;;9.13;6.32;;;8.60;62.60;;;;;;5004219;28;20504;-74
2022/12/21 10:29:03;;;;;;;9.43;6.38;;;8.60;62.60;;;;;;5023647;28;20145;-75
2022/12/21 10:31:44;;;;;;;8.77;5.55;;;8.60;62.70;;;;;;5023239;28;20037;-74
2022/12/21 10:34:36;;;;;;;10.90;6.32;;;8.60;63.40;;;;;;5006099;28;20499;-75
2022/12/21 10:37:12;;;;;;;9.85;6.22;;;8.60;62.90;;;;;;5003772;28;20133;-75
2022/12/21 10:39:39;;;;;;;8.43;6.07;;;8.60;62.90;;;;;;5023079;28;20461;-75
2022/12/21 10:42:30;;;;;;;10.52;6.55;;;8.50;63.00;;;;;;5005341;28;20065;-76
2022/12/21 10:44:56;;;;;;;8.70;6.15;;;8.50;63.10;;;;;;5023092;28;20040;-75
2022/12/21 10:47:23;;;;;;;8.18;5.80;;;8.50;63.10;;;;;;5057991;28;20081;-75
2022/12/21 10:50:04;;;;;;;8.63;6.05;;;8.50;63.20;;;;;;5070065;28;20418;-74
2022/12/21 10:52:43;;;;;;;8.20;5.80;;;8.50;63.20;;;;;;5071094;28;20074;-76
2022/12/21 10:55:36;;;;;;;7.60;5.57;;;8.50;63.20;;;;;;5069069;28;20036;-75
2022/12/21 10:58:16;;;;;;;9.25;5.60;;;8.50;63.30;;;;;;5066229;28;20094;-75
2022/12/21 11:01:03;;;;;;;8.05;5.30;;;8.50;63.20;;;;;;5069593;28;20051;-74
2022/12/21 11:03:38;;;;;;;6.85;5.30;;;8.50;63.30;;;;;;5069333;28;20449;-76
2022/12/21 11:06:19;;;;;;;8.70;5.15;;;8.50;63.30;;;;;;5050992;28;20032;-74
2022/12/21 11:08:50;;;;;;;7.75;5.80;;;8.50;63.30;;;;;;5069423;28;20108;-75
2022/12/21 11:11:35;;;;;;;7.40;5.43;;;8.40;63.80;;;;;;5084514;28;20074;-76
2022/12/21 11:14:16;;;;;;;8.20;5.38;;;8.40;63.20;;;;;;5069516;28;20032;-75
2022/12/21 11:16:44;;;;;;;8.57;5.75;;;8.40;63.30;;;;;;5068818;28;20044;-74
2022/12/21 11:19:13;;;;;;;8.38;5.82;;;8.40;63.20;;;;;;5069516;28;20036;-75
2022/12/21 11:21:45;;;;;;;8.57;6.10;;;8.40;63.20;;;;;;5034662;28;20391;-76
2022/12/21 11:24:22;;;;;;;7.75;5.93;;;8.40;63.20;;;;;;5085088;28;20032;-73
2022/12/21 11:26:54;;;;;;;8.82;5.95;;;8.40;63.20;;;;;;5088249;28;20063;-75
2022/12/21 11:29:41;;;;;;;9.07;6.10;;;8.40;63.30;;;;;;5090797;28;20584;-75
2022/12/21 11:32:11;;;;;;;8.98;6.25;;;8.40;63.30;;;;;;5087585;28;20037;-74
2022/12/21 11:34:37;;;;;;;8.95;6.03;;;8.40;63.30;;;;;;5075553;28;20032;-75
2022/12/21 11:37:22;;;;;;;8.52;6.18;;;8.40;63.40;;;;;;5055251;28;20035;-79
2022/12/21 11:39:48;;;;;;;9.00;6.13;;;8.40;63.50;;;;;;5063816;28;20035;-74
2022/12/21 11:42:21;;;;;;;9.02;6.35;;;8.40;63.50;;;;;;5072632;28;20282;-75
2022/12/21 11:44:50;;;;;;;8.05;5.95;;;8.40;63.50;;;;;;5071491;28;20048;-75
2022/12/21 11:47:56;;;;;;;9.82;6.32;;;8.40;63.50;;;;;;5071233;28;20033;-75
2022/12/21 11:50:31;;;;;;;9.48;6.72;;;8.30;63.50;;;;;;5023221;28;20058;-75
2022/12/21 11:53:09;;;;;;;8.73;6.05;;;8.40;63.50;;;;;;5050652;28;20041;-75
2022/12/21 11:55:38;;;;;;;9.68;6.20;;;8.30;63.50;;;;;;5032148;28;20094;-75
2022/12/21 11:58:15;;;;;;;8.35;6.13;;;8.40;63.70;;;;;;5033280;28;20134;-77
2022/12/21 12:00:55;;;;;;;8.70;6.20;;;8.30;63.60;;;;;;5016552;28;20147;-74
2022/12/21 12:03:41;;;;;;;10.30;6.90;;;8.40;63.50;;;;;;5050589;28;20403;-75
2022/12/21 12:06:36;;;;;;;8.95;6.45;;;8.30;63.30;;;;;;5050509;28;20091;-74
2022/12/21 12:09:20;;;;;;;9.35;6.70;;;8.30;63.20;;;;;;5049545;28;20066;-74
2022/12/21 12:12:13;;;;;;;10.43;6.65;;;8.30;63.20;;;;;;5050886;28;20131;-74
2022/12/21 12:15:03;;;;;;;11.25;8.15;;;8.30;63.40;;;;;;5049529;28;20517;-75
2022/12/21 12:17:46;;;;;;;18.05;10.07;;;8.20;63.50;;;;;;5049649;28;20033;-76
2022/12/21 12:20:27;;;;;;;15.93;10.45;;;8.20;63.90;;;;;;5049821;28;20228;-74
2022/12/21 12:23:21;;;;;;;17.67;10.95;;;8.20;64.40;;;;;;5048393;28;20149;-73
2022/12/21 12:26:27;;;;;;;16.48;10.27;;;8.20;64.70;;;;;;5036278;28;20411;-73
2022/12/21 12:29:05;;;;;;;19.02;11.75;;;8.20;64.90;;;;;;5051925;28;20033;-74
2022/12/21 12:32:00;;;;;;;16.75;10.95;;;8.20;65.10;;;;;;5033006;28;20061;-73
2022/12/21 12:35:04;;;;;;;15.88;10.73;;;8.20;65.50;;;;;;5030515;28;20114;-72
2022/12/21 12:37:33;;;;;;;15.82;10.45;;;8.20;65.80;;;;;;5032116;28;20132;-73
2022/12/21 12:40:22;;;;;;;18.30;11.57;;;8.20;65.90;;;;;;5033592;28;20071;-73
2022/12/21 12:42:54;;;;;;;17.00;10.23;;;8.20;66.00;;;;;;5030915;28;20034;-74
2022/12/21 12:45:44;;;;;;;15.88;9.77;;;8.20;66.20;;;;;;5032884;28;20044;-74
2022/12/21 12:48:22;;;;;;;14.65;9.82;;;8.20;66.50;;;;;;5032521;28;20129;-72
2022/12/21 12:50:52;;;;;;;14.68;9.60;;;8.20;66.60;;;;;;5030845;28;20056;-74
2022/12/21 12:53:38;;;;;;;14.05;9.35;;;8.20;66.80;;;;;;5031107;28;20102;-74
2022/12/21 12:56:19;;;;;;;14.82;9.07;;;8.20;67.00;;;;;;5031903;28;20037;-73
2022/12/21 12:59:18;;;;;;;15.10;9.57;;;8.20;67.20;;;;;;5029176;28;20079;-70
2022/12/21 13:02:24;;;;;;;13.95;9.20;;;8.20;67.10;;;;;;5030419;28;20068;-73
2022/12/21 13:05:08;;;;;;;11.43;7.75;;;8.20;67.10;;;;;;5032553;28;20037;-76
2022/12/21 13:07:44;;;;;;;13.27;9.15;;;8.20;67.10;;;;;;5031271;28;20045;-75
2022/12/21 13:10:21;;;;;;;12.70;8.57;;;8.20;67.20;;;;;;5024495;28;20132;-77
2022/12/21 13:13:02;;;;;;;14.38;8.95;;;8.20;67.30;;;;;;5032179;28;20048;-76
2022/12/21 13:15:44;;;;;;;15.50;8.65;;;8.20;67.70;;;;;;5030533;28;20044;-75
2022/12/21 13:18:19;;;;;;;11.73;8.23;;;8.20;68.40;;;;;;5030550;28;20072;-77
2022/12/21 13:20:47;;;;;;;;;;;8.20;69.30;;;;;;5029515;28;20084;-77
2022/12/21 13:23:38;;;;;;;16.13;8.85;;;8.20;70.20;;;;;;5029063;28;20347;-74
2022/12/21 13:26:07;;;;;;;13.73;8.98;;;8.20;69.80;;;;;;5026018;28;20037;-75